Time;durP1;ratioP1;P1;durP2;ratioP2;P2;SDS_P1;SDS_P2;PMS_P1;PMS_P2;Temp;Humidity;BMP_temperature;BMP_pressure;BME280_temperature;BME280_humidity;BME280_pressure;Samples;Min_cycle;Max_cycle;Signal;HPM_P1;HPM_P2
2023/09/21 00:02:27;;;;;;;3.95;1.73;;;;;;;;;;5110610;28;20020;-80
2023/09/21 00:04:53;;;;;;;3.55;1.60;;;;;;;;;;5110409;28;20020;-80
2023/09/21 00:07:20;;;;;;;6.18;2.38;;;;;;;;;;5110615;28;20070;-81
2023/09/21 00:09:46;;;;;;;3.95;2.38;;;;;;;;;;5110536;28;20531;-81
2023/09/21 00:12:12;;;;;;;4.45;1.85;;;;;;;;;;5110808;28;20028;-81
2023/09/21 00:14:38;;;;;;;4.43;1.83;;;;;;;;;;5110498;28;20052;-82
2023/09/21 00:17:04;;;;;;;5.40;2.20;;;;;;;;;;5110452;28;20094;-82
2023/09/21 00:19:31;;;;;;;3.28;1.70;;;;;;;;;;5109656;28;20101;-82
2023/09/21 00:21:57;;;;;;;4.57;2.20;;;;;;;;;;5110251;28;20036;-82
2023/09/21 00:24:23;;;;;;;5.90;1.77;;;;;;;;;;5110637;28;20081;-83
2023/09/21 00:26:51;;;;;;;3.55;1.77;;;;;;;;;;5110184;28;20028;-81
2023/09/21 00:29:17;;;;;;;3.58;2.15;;;;;;;;;;5110294;28;20024;-83
2023/09/21 00:31:43;;;;;;;2.92;1.73;;;;;;;;;;5110818;28;20024;-82
2023/09/21 00:34:10;;;;;;;2.88;1.60;;;;;;;;;;5110130;28;20112;-79
2023/09/21 00:36:36;;;;;;;4.50;1.80;;;;;;;;;;5110235;28;20020;-81
2023/09/21 00:39:03;;;;;;;5.82;2.30;;;;;;;;;;5110578;28;20016;-81
2023/09/21 00:41:32;;;;;;;5.72;2.28;;;;;;;;;;5109669;28;20017;-83
2023/09/21 00:44:06;;;;;;;4.05;2.10;;;;;;;;;;5109970;28;20032;-82
2023/09/21 00:46:35;;;;;;;4.70;2.25;;;;;;;;;;5110219;28;20101;-81
2023/09/21 00:49:03;;;;;;;5.20;2.15;;;;;;;;;;5110679;28;20363;-81
2023/09/21 00:51:29;;;;;;;3.53;1.88;;;;;;;;;;5109947;28;20069;-84
2023/09/21 00:53:56;;;;;;;4.28;2.10;;;;;;;;;;5110219;28;20024;-83
2023/09/21 00:56:23;;;;;;;3.75;1.60;;;;;;;;;;5109888;28;20031;-81
2023/09/21 00:58:53;;;;;;;4.95;2.40;;;;;;;;;;5110675;28;20024;-81
2023/09/21 01:01:22;;;;;;;5.28;2.28;;;;;;;;;;5093951;28;20091;-83
2023/09/21 01:03:50;;;;;;;8.60;2.35;;;;;;;;;;5109895;28;20486;-82
2023/09/21 01:06:16;;;;;;;5.55;2.10;;;;;;;;;;5109818;28;20382;-79
2023/09/21 01:08:43;;;;;;;3.58;1.70;;;;;;;;;;5109729;28;20050;-80
2023/09/21 01:11:10;;;;;;;5.40;2.17;;;;;;;;;;5109955;28;20048;-82
2023/09/21 01:13:36;;;;;;;3.20;1.60;;;;;;;;;;5110116;28;20031;-82
2023/09/21 01:16:03;;;;;;;4.97;1.90;;;;;;;;;;5109555;28;20043;-83
2023/09/21 01:18:29;;;;;;;4.55;1.85;;;;;;;;;;5109323;28;20044;-81
2023/09/21 01:21:00;;;;;;;2.58;1.60;;;;;;;;;;5109818;28;20077;-82
2023/09/21 01:23:43;;;;;;;2.60;1.45;;;;;;;;;;5109508;28;20050;-82
2023/09/21 01:26:13;;;;;;;4.70;2.20;;;;;;;;;;5109733;28;20028;-82
2023/09/21 01:28:40;;;;;;;3.15;1.60;;;;;;;;;;5109785;28;20544;-83
2023/09/21 01:31:11;;;;;;;4.40;2.10;;;;;;;;;;5093909;28;20103;-84
2023/09/21 01:33:38;;;;;;;3.43;1.63;;;;;;;;;;5109763;28;20028;-83
2023/09/21 01:36:08;;;;;;;4.15;2.08;;;512.80;2380.80;;;;;;5109547;28;20425;-81
2023/09/21 01:38:37;;;;;;;3.17;1.75;;;;;;;;;;5109655;28;20028;-81
2023/09/21 01:41:06;;;;;;;3.22;2.10;;;;;;;;;;5109450;28;20475;-80
2023/09/21 01:43:35;;;;;;;3.15;1.98;;;;;;;;;;5111452;28;20425;-83
2023/09/21 01:46:01;;;;;;;5.15;1.90;;;;;;;;;;5113545;28;20020;-80
2023/09/21 01:48:27;;;;;;;5.97;2.08;;;;;;;;;;5097634;28;20082;-81
2023/09/21 01:50:57;;;;;;;4.45;1.67;;;;;;;;;;5113026;28;20020;-82
2023/09/21 01:53:23;;;;;;;5.53;2.80;;;;;;;;;;5113324;28;20048;-83
2023/09/21 01:55:50;;;;;;;2.95;1.67;;;;;;;;;;5113303;28;20020;-83
2023/09/21 01:58:16;;;;;;;3.70;1.95;;;;;;;;;;5112918;28;20024;-82
2023/09/21 02:00:46;;;;;;;3.85;1.85;;;;;;;;;;5113065;28;20547;-79
2023/09/21 02:03:13;;;;;;;4.88;2.05;;;;;;;;;;5113035;28;20085;-81
2023/09/21 02:05:39;;;;;;;3.90;2.28;;;;;;;;;;5112724;28;20043;-81
2023/09/21 02:08:07;;;;;;;5.05;1.98;;;;;;;;;;5113196;28;20024;-82
2023/09/21 02:10:33;;;;;;;3.92;1.92;;;;;;;;;;5113233;28;20016;-81
2023/09/21 02:13:00;;;;;;;6.22;2.42;;;;;;;;;;5112824;28;20548;-82
2023/09/21 02:15:27;;;;;;;4.38;1.80;;;;;;;;;;5113030;28;20468;-82
2023/09/21 02:17:55;;;;;;;4.20;2.00;;;;;;;;;;5112434;28;20071;-82
2023/09/21 02:20:21;;;;;;;4.78;1.98;;;;;;;;;;5112902;28;20487;-81
2023/09/21 02:22:48;;;;;;;3.20;1.90;;;;;;;;;;5113416;28;20039;-82
2023/09/21 02:25:15;;;;;;;4.45;2.08;;;;;;;;;;5112618;28;20058;-83
2023/09/21 02:27:43;;;;;;;9.48;2.33;;;;;;;;;;5096951;28;20485;-80
2023/09/21 02:30:13;;;;;;;7.63;3.13;;;;;;;;;;5112561;28;20365;-79
2023/09/21 02:32:41;;;;;;;4.20;1.98;;;;;;;;;;5096886;28;20034;-81
2023/09/21 02:35:08;;;;;;;2.97;1.83;;;;;;;;;;5112374;28;20055;-83
2023/09/21 02:37:35;;;;;;;4.80;2.30;;;;;;;;;;5112419;28;20063;-81
2023/09/21 02:40:02;;;;;;;5.15;2.40;;;;;;;;;;5112123;28;20046;-82
2023/09/21 02:42:28;;;;;;;4.60;2.00;;;;;;;;;;5112258;28;20082;-82
2023/09/21 02:44:55;;;;;;;2.60;1.50;;;;;;;;;;5096710;28;20023;-81
2023/09/21 02:47:23;;;;;;;8.23;2.33;;;;;;;;;;5096576;28;20483;-81
2023/09/21 02:49:51;;;;;;;5.45;2.85;;;;;;;;;;5112220;28;20123;-80
2023/09/21 02:52:17;;;;;;;6.82;2.70;;;;;;;;;;5112238;28;20027;-81
2023/09/21 02:54:44;;;;;;;5.70;2.67;;;;;;;;;;5095096;28;20444;-82
2023/09/21 02:57:12;;;;;;;3.58;2.30;;;;;;;;;;5111860;28;20020;-80
2023/09/21 02:59:38;;;;;;;5.38;1.98;;;;;;;;;;5111572;28;20020;-81
2023/09/21 03:02:04;;;;;;;6.90;2.67;;;;;;;;;;5112030;28;20119;-79
2023/09/21 03:04:33;;;;;;;9.00;2.28;;;;;;;;;;5111936;28;20104;-81
2023/09/21 03:06:59;;;;;;;5.63;2.33;;;;;;;;;;5111660;28;20081;-82
2023/09/21 03:09:26;;;;;;;4.25;1.95;;;;;;;;;;5112241;28;20402;-83
2023/09/21 03:11:53;;;;;;;5.57;2.47;;;;;;;;;;5096683;28;20455;-82
2023/09/21 03:14:20;;;;;;;3.03;1.83;;;;;;;;;;5111962;28;20490;-80
2023/09/21 03:16:47;;;;;;;3.95;2.20;;;;;;;;;;5111880;28;20379;-80
2023/09/21 03:19:15;;;;;;;3.38;1.80;;;;;;;;;;5111366;28;20044;-81
2023/09/21 03:21:42;;;;;;;3.03;1.52;;;;;;;;;;5111195;28;20032;-83
2023/09/21 03:24:09;;;;;;;5.55;2.35;;;;;;;;;;5111664;28;20036;-83
2023/09/21 03:26:38;;;;;;;7.60;2.20;;;;;;;;;;5111559;28;20069;-84
2023/09/21 03:29:12;;;;;;;5.47;1.77;;;;;;;;;;5111152;28;20024;-80
2023/09/21 03:31:38;;;;;;;8.35;2.72;;;;;;;;;;5095669;28;20101;-81
2023/09/21 03:34:05;;;;;;;4.82;2.20;;;;;;;;;;5096012;28;20158;-78
2023/09/21 03:36:35;;;;;;;3.83;2.30;;;;;;;;;;5110993;28;20020;-78
2023/09/21 03:39:09;;;;;;;4.22;2.05;;;;;;;;;;5111413;28;20039;-83
2023/09/21 03:41:35;;;;;;;4.55;2.28;;;;;;;;;;5118575;28;20005;-77
2023/09/21 03:44:03;;;;;;;3.33;1.90;;;;;;;;;;5131940;27;20036;-81
2023/09/21 03:46:29;;;;;;;3.63;1.48;;;;;;;;;;5114070;28;20032;-81
2023/09/21 03:48:56;;;;;;;3.42;1.65;;;;;;;;;;5112813;28;20062;-79
2023/09/21 03:51:22;;;;;;;3.92;2.10;;;;;;;;;;5112212;28;20029;-82
2023/09/21 03:53:48;;;;;;;4.47;1.80;;;;;;;;;;5111044;28;20016;-79
2023/09/21 03:56:14;;;;;;;6.07;1.80;;;;;;;;;;5094660;28;20525;-80
2023/09/21 03:58:40;;;;;;;6.43;1.92;;;;;;;;;;5095301;28;20059;-81
2023/09/21 04:01:09;;;;;;;4.03;2.00;;;;;;;;;;5095240;28;20016;-81
2023/09/21 04:03:36;;;;;;;5.15;1.70;;;;;;;;;;5094760;28;20521;-83
2023/09/21 04:06:06;;;;;;;6.45;1.98;;;;;;;;;;5111243;28;20027;-82
2023/09/21 04:08:32;;;;;;;5.90;2.35;;;;;;;;;;5095219;28;20020;-81
2023/09/21 04:11:01;;;;;;;5.60;2.33;;;;;;;;;;5110632;28;20488;-81
2023/09/21 04:13:27;;;;;;;5.03;2.25;;;;;;;;;;5110895;28;20464;-79
2023/09/21 04:15:53;;;;;;;5.10;2.45;;;;;;;;;;5095113;28;20024;-82
2023/09/21 04:18:19;;;;;;;2.92;1.73;;;;;;;;;;5114961;28;20520;-80
2023/09/21 04:20:46;;;;;;;5.00;2.03;;;;;;;;;;5113114;28;20585;-81
2023/09/21 04:23:12;;;;;;;4.20;2.00;;;;;;;;;;5110407;28;20028;-82
2023/09/21 04:25:39;;;;;;;3.55;1.80;;;;;;;;;;5110115;28;20123;-81
2023/09/21 04:28:05;;;;;;;3.95;1.80;;;;;;;;;;5095122;28;20068;-81
2023/09/21 04:30:34;;;;;;;3.60;1.92;;;;;;;;;;5094381;28;20020;-80
2023/09/21 04:33:00;;;;;;;3.53;1.75;;;;;;;;;;5110337;28;20035;-79
2023/09/21 04:35:27;;;;;;;7.18;2.35;;;;;;;;;;5110095;28;20027;-82
2023/09/21 04:37:58;;;;;;;4.75;2.05;;;;;;;;;;5109982;28;20536;-80
2023/09/21 04:40:26;;;;;;;5.22;2.28;;;;;;;;;;5110602;28;20024;-84
2023/09/21 04:42:52;;;;;;;6.47;2.35;;;;;;;;;;5110812;28;20024;-80
2023/09/21 04:45:18;;;;;;;4.45;1.73;;;;;;;;;;5109954;28;20047;-80
2023/09/21 04:47:45;;;;;;;3.40;2.13;;;;;;;;;;5094746;28;20024;-79
2023/09/21 04:50:12;;;;;;;5.10;2.00;;;;;;;;;;5110192;28;20418;-79
2023/09/21 04:52:38;;;;;;;4.53;1.90;;;;;;;;;;5109840;28;20024;-82
2023/09/21 04:55:08;;;;;;;5.15;2.33;;;;;;;;;;5110101;28;20016;-80
2023/09/21 04:57:34;;;;;;;3.17;1.52;;;;;;;;;;5110549;28;20020;-82
2023/09/21 05:00:04;;;;;;;5.00;2.28;;;;;;;;;;5109786;28;20024;-79
2023/09/21 05:02:30;;;;;;;4.82;1.92;;;;;;;;;;5109745;28;20364;-81
2023/09/21 05:04:56;;;;;;;5.53;2.17;;;;;;;;;;5109995;28;20028;-82
2023/09/21 05:07:22;;;;;;;3.67;1.90;;;;;;;;;;5093902;28;20113;-80
2023/09/21 05:09:49;;;;;;;4.53;2.10;;;;;;;;;;5109738;28;20094;-81
2023/09/21 05:12:18;;;;;;;5.10;2.00;;;;;;;;;;5110334;28;20021;-83
2023/09/21 05:14:45;;;;;;;4.45;2.42;;;;;;;;;;5094501;28;20012;-80
2023/09/21 05:17:11;;;;;;;4.80;2.10;;;;;;;;;;5109563;28;20023;-80
2023/09/21 05:19:38;;;;;;;4.55;2.15;;;;;;;;;;5113593;28;20060;-84
2023/09/21 05:22:04;;;;;;;6.40;2.97;;;;;;;;;;5113953;28;20050;-83
2023/09/21 05:24:32;;;;;;;4.10;2.15;;;;;;;;;;5113986;28;20102;-80
2023/09/21 05:26:59;;;;;;;7.28;2.85;;;;;;;;;;5098282;28;20367;-82
2023/09/21 05:29:25;;;;;;;4.65;2.47;;;;;;;;;;5113883;28;20467;-82
2023/09/21 05:31:51;;;;;;;4.15;2.20;;;;;;;;;;5113852;28;20118;-80
2023/09/21 05:34:17;;;;;;;4.80;2.40;;;;;;;;;;5113527;28;20028;-80
2023/09/21 05:36:50;;;;;;;4.22;1.98;;;;;;;;;;5113679;28;20028;-82
2023/09/21 05:39:19;;;;;;;4.75;2.05;;;;;;;;;;5113807;28;20110;-81
2023/09/21 05:41:45;;;;;;;9.70;2.63;;;;;;;;;;5113182;28;20021;-81
2023/09/21 05:44:11;;;;;;;4.57;2.53;;;;;;;;;;5113396;28;20028;-80
2023/09/21 05:46:38;;;;;;;5.43;2.20;;;;;;;;;;5113364;28;20024;-83
2023/09/21 05:49:05;;;;;;;12.82;2.55;;;;;;;;;;5113236;28;20020;-79
2023/09/21 05:51:32;;;;;;;3.42;1.98;;;;;;;;;;5097582;28;20026;-80
2023/09/21 05:53:58;;;;;;;4.10;2.17;;;;;;;;;;5113502;28;20022;-82
2023/09/21 05:56:24;;;;;;;6.25;2.47;;;;;;;;;;5112911;28;20066;-81
2023/09/21 05:58:51;;;;;;;5.28;2.20;;;;;;;;;;5113338;28;20054;-80
2023/09/21 06:01:17;;;;;;;5.18;2.50;;;;;;;;;;5112994;28;20020;-82
2023/09/21 06:03:44;;;;;;;4.15;2.08;;;;;;;;;;5097338;28;20103;-80
2023/09/21 06:06:10;;;;;;;5.30;2.42;;;;;;;;;;5112945;28;20063;-80
2023/09/21 06:08:39;;;;;;;5.18;2.28;;;;;;;;;;5097418;28;20024;-81
2023/09/21 06:11:05;;;;;;;7.07;2.50;;;;;;;;;;5113073;28;20027;-82
2023/09/21 06:13:32;;;;;;;4.55;2.05;;;;;;;;;;5113559;28;20024;-79
2023/09/21 06:15:59;;;;;;;4.72;2.28;;;;;;;;;;5112559;28;20030;-80
2023/09/21 06:18:25;;;;;;;6.10;2.55;;;;;;;;;;5096864;28;20048;-80
2023/09/21 06:20:54;;;;;;;5.70;2.00;;;;;;;;;;5113030;28;20024;-82
2023/09/21 06:23:20;;;;;;;5.75;2.38;;;;;;;;;;5096396;28;20376;-82
2023/09/21 06:25:46;;;;;;;4.95;2.42;;;;;;;;;;5112738;28;20056;-80
2023/09/21 06:28:12;;;;;;;3.90;2.00;;;;;;;;;;5097216;28;20413;-81
2023/09/21 06:30:38;;;;;;;4.47;2.00;;;;;;;;;;5096569;28;20020;-80
2023/09/21 06:33:04;;;;;;;4.97;2.60;;;;;;;;;;5096569;28;20060;-81
2023/09/21 06:35:30;;;;;;;9.80;2.70;;;;;;;;;;5112570;28;20019;-82
2023/09/21 06:37:56;;;;;;;7.53;2.83;;;;;;;;;;5112171;28;20034;-82
2023/09/21 06:40:25;;;;;;;6.35;2.92;;;;;;;;;;5112456;28;20426;-83
2023/09/21 06:42:51;;;;;;;7.00;2.50;;;;;;;;;;5112281;28;20031;-81
2023/09/21 06:45:18;;;;;;;6.78;2.67;;;;;;;;;;5112003;28;20042;-79
2023/09/21 06:47:47;;;;;;;4.57;2.92;;;;;;;;;;5112148;28;20073;-80
2023/09/21 06:50:14;;;;;;;5.35;2.72;;;;;;;;;;5112237;28;20016;-80
2023/09/21 06:52:40;;;;;;;6.15;2.80;;;;;;;;;;5111935;28;20031;-80
2023/09/21 06:55:07;;;;;;;5.95;2.75;;;;;;;;;;5096408;28;20031;-81
2023/09/21 06:57:34;;;;;;;8.27;3.97;;;;;;;;;;5111665;28;20027;-83
2023/09/21 07:00:09;;;;;;;6.13;2.92;;;;;;;;;;5112547;28;20075;-83
2023/09/21 07:02:36;;;;;;;7.22;3.25;;;;;;;;;;5112188;28;20089;-81
2023/09/21 07:05:03;;;;;;;6.68;2.95;;;;;;;;;;5100706;28;20109;-79
2023/09/21 07:07:31;;;;;;;5.85;2.70;;;;;;;;;;5119154;28;20035;-81
2023/09/21 07:09:57;;;;;;;8.85;3.92;;;;;;;;;;5113213;28;20499;-81
2023/09/21 07:12:23;;;;;;;4.85;2.58;;;;;;;;;;5111659;28;20118;-82
2023/09/21 07:14:50;;;;;;;7.80;3.30;;;;;;;;;;5111615;28;20036;-82
2023/09/21 07:17:16;;;;;;;6.57;3.72;;;;;;;;;;5096536;28;20016;-81
2023/09/21 07:19:43;;;;;;;5.10;2.60;;;;;;;;;;5110557;28;20438;-81
2023/09/21 07:22:10;;;;;;;7.72;2.53;;;;;;;;;;5095776;28;20055;-84
2023/09/21 07:24:37;;;;;;;5.95;2.47;;;;;;;;;;5111677;28;20020;-80
2023/09/21 07:27:04;;;;;;;5.70;2.55;;;;;;;;;;5096034;28;20432;-82
2023/09/21 07:29:33;;;;;;;4.75;2.80;;;;;;;;;;5110141;28;20133;-82
2023/09/21 07:32:00;;;;;;;5.93;2.70;;;;;;;;;;5094826;28;20124;-81
2023/09/21 07:34:26;;;;;;;5.05;2.33;;;;;;;;;;5094374;28;20047;-83
2023/09/21 07:36:52;;;;;;;9.38;3.03;;;;;;;;;;5096043;28;20081;-80
2023/09/21 07:39:18;;;;;;;5.53;2.45;;;;;;;;;;5096671;28;20153;-82
2023/09/21 07:41:46;;;;;;;7.93;2.40;;;;;;;;;;5110263;28;20065;-81
2023/09/21 07:44:13;;;;;;;8.00;3.45;;;;;;;;;;5100023;28;20154;-82
2023/09/21 07:46:39;;;;;;;7.55;2.70;;;;;;;;;;5094150;28;20025;-81
2023/09/21 07:49:06;;;;;;;7.32;2.65;;;;;;;;;;5095361;28;20079;-81
2023/09/21 07:51:33;;;;;;;4.07;2.00;;;;;;;;;;5095506;28;20110;-81
2023/09/21 07:54:00;;;;;;;4.53;2.30;;;;;;;;;;5094844;28;20026;-82
2023/09/21 07:56:27;;;;;;;6.20;2.55;;;;;;;;;;5095786;28;20077;-81
2023/09/21 07:58:53;;;;;;;7.90;2.70;;;;;;;;;;5096149;28;20077;-80
2023/09/21 08:01:19;;;;;;;3.55;2.10;;;;;;;;;;5084511;28;20530;-84
2023/09/21 08:03:49;;;;;;;6.75;2.55;;;;;;;;;;5093924;28;20078;-79
2023/09/21 08:06:17;;;;;;;4.53;2.28;;;;;;;;;;5093942;28;20032;-81
2023/09/21 08:08:43;;;;;;;7.78;2.33;;;;;;;;;;5093862;28;20020;-81
2023/09/21 08:11:09;;;;;;;4.57;2.08;;;;;;;;;;5079338;28;20437;-84
2023/09/21 08:13:35;;;;;;;10.85;2.60;;;;;;;;;;5085997;28;20080;-80
2023/09/21 08:16:02;;;;;;;4.43;2.30;;;;;;;;;;5076716;28;20025;-82
2023/09/21 08:18:28;;;;;;;5.00;3.00;;;;;;;;;;5090827;28;20049;-81
2023/09/21 08:20:54;;;;;;;5.65;2.88;;;;;;;;;;5080158;28;20024;-81
2023/09/21 08:23:20;;;;;;;5.38;2.45;;;;;;;;;;5081993;28;20043;-80
2023/09/21 08:25:46;;;;;;;8.27;3.17;;;;;;;;;;5089133;28;20024;-78
2023/09/21 08:28:12;;;;;;;5.57;2.92;;;;;;;;;;5088821;28;20073;-79
2023/09/21 08:30:38;;;;;;;7.15;2.45;;;;;;;;;;5076956;28;20049;-79
2023/09/21 08:33:07;;;;;;;6.40;2.05;;;;;;;;;;5092742;28;20454;-80
2023/09/21 08:35:34;;;;;;;6.95;2.63;;;;;;;;;;5092220;28;20027;-79
2023/09/21 08:38:00;;;;;;;4.82;2.70;;;;;;;;;;5076283;28;20436;-80
2023/09/21 08:40:27;;;;;;;9.02;3.20;;;;;;;;;;5089084;28;20107;-80
2023/09/21 08:42:55;;;;;;;7.03;2.92;;;;;;;;;;5079033;28;20069;-79
2023/09/21 08:45:22;;;;;;;6.05;2.33;;;;;;;;;;5081704;28;20063;-81
2023/09/21 08:47:49;;;;;;;7.20;2.90;;;;;;;;;;5087093;28;20585;-80
2023/09/21 08:50:15;;;;;;;5.03;2.92;;;;;;;;;;5075525;28;20518;-79
2023/09/21 08:52:45;;;;;;;5.72;2.85;;;;;;;;;;5086125;28;20032;-80
2023/09/21 08:55:16;;;;;;;6.15;2.75;;;;;;;;;;5082908;28;20024;-79
2023/09/21 08:57:42;;;;;;;6.22;2.38;;;;;;;;;;5085426;28;20051;-80
2023/09/21 09:00:09;;;;;;;7.80;2.45;;;;;;;;;;5091629;28;20031;-81
2023/09/21 09:02:36;;;;;;;5.40;2.28;;;;;;;;;;5076400;28;20024;-81
2023/09/21 09:05:06;;;;;;;5.40;2.80;;;;;;;;;;5083803;28;20025;-83
2023/09/21 09:07:37;;;;;;;4.90;2.65;;;;;;;;;;5084698;28;20024;-81
2023/09/21 09:10:05;;;;;;;6.50;2.65;;;;;;;;;;5075943;28;20409;-81
2023/09/21 09:12:32;;;;;;;5.85;2.45;;;;;;;;;;5092596;28;20022;-82
2023/09/21 09:15:02;;;;;;;4.43;2.10;;;;;;;;;;5092556;28;20021;-80
2023/09/21 09:17:32;;;;;;;4.63;2.17;;;;;;;;;;5080072;28;20020;-80
2023/09/21 09:20:01;;;;;;;6.57;2.20;;;;;;;;;;5089510;28;20053;-81
2023/09/21 09:22:28;;;;;;;5.07;2.15;;;;;;;;;;5088844;28;20040;-81
2023/09/21 09:24:56;;;;;;;5.05;2.55;;;;;;;;;;5078921;28;20024;-79
2023/09/21 09:27:22;;;;;;;4.93;2.45;;;;;;;;;;5081286;28;20495;-80
2023/09/21 09:29:52;;;;;;;5.43;2.22;;;;;;;;;;5072277;28;20108;-78
2023/09/21 09:32:18;;;;;;;6.43;2.65;;;;;;;;;;5088473;28;20028;-82
2023/09/21 09:34:46;;;;;;;7.38;2.22;;;;;;;;;;5077803;28;20450;-81
2023/09/21 09:37:14;;;;;;;5.40;2.15;;;;;;;;;;5082443;28;20027;-80
2023/09/21 09:39:40;;;;;;;5.35;2.53;;;;;;;;;;5085262;28;20024;-80
2023/09/21 09:42:07;;;;;;;4.68;2.42;;;;;;;;;;5075709;28;20116;-82
2023/09/21 09:44:37;;;;;;;11.95;2.55;;;;;;;;;;5088013;28;20020;-81
2023/09/21 09:47:03;;;;;;;3.85;1.92;;;;;;;;;;5071860;28;20092;-80
2023/09/21 09:49:32;;;;;;;4.22;1.75;;;;;;;;;;5086947;28;20020;-80
2023/09/21 09:52:00;;;;;;;6.40;1.98;;;;;;;;;;5084342;28;20021;-77
2023/09/21 09:54:27;;;;;;;3.30;1.77;;;;;;;;;;5089680;28;20017;-82
2023/09/21 09:56:57;;;;;;;4.25;1.70;;;;;;;;;;5078855;28;20035;-80
2023/09/21 09:59:26;;;;;;;4.55;1.80;;;;;;;;;;5080472;28;20590;-80
2023/09/21 10:01:53;;;;;;;5.97;2.45;;;;;;;;;;5087149;28;20028;-80
2023/09/21 10:04:20;;;;;;;3.67;2.00;;;;;;;;;;5077926;28;20033;-79
2023/09/21 10:06:47;;;;;;;3.58;1.80;;;;;;;;;;5090886;28;20083;-80
2023/09/21 10:09:15;;;;;;;4.15;1.83;;;;;;;;;;5085129;28;20026;-80
2023/09/21 10:11:45;;;;;;;4.13;2.25;;;;;;;;;;5082003;28;20071;-80
2023/09/21 10:14:13;;;;;;;4.55;1.65;;;;;;;;;;5092959;28;20016;-81
2023/09/21 10:16:49;;;;;;;4.25;2.00;;;;;;;;;;5080351;28;20020;-79
2023/09/21 10:19:18;;;;;;;4.25;2.00;;;;;;;;;;5085044;28;20103;-81
2023/09/21 10:21:45;;;;;;;3.17;1.88;;;;;;;;;;5088945;28;20028;-82
2023/09/21 10:24:16;;;;;;;5.22;2.45;;;;;;;;;;5078354;28;20024;-79
2023/09/21 10:27:03;;;;;;;7.20;2.33;;;;;;;;;;5091084;28;20017;-79
2023/09/21 10:29:40;;;;;;;3.20;1.63;;;;;;;;;;5086594;28;20032;-80
2023/09/21 10:32:07;;;;;;;4.07;2.00;;;;;;;;;;5078429;28;20226;-79
2023/09/21 10:34:33;;;;;;;3.40;1.58;;;;;;;;;;5090963;28;20107;-80
2023/09/21 10:37:05;;;;;;;3.53;2.08;;;;;;;;;;5082387;28;20036;-79
2023/09/21 10:39:32;;;;;;;3.85;2.08;;;;;;;;;;5083986;28;20115;-78
2023/09/21 10:42:04;;;;;;;4.95;2.33;;;;;;;;;;5090228;28;20491;-79
2023/09/21 10:44:49;;;;;;;3.00;1.50;;;;;;;;;;5079689;28;20044;-80
2023/09/21 10:47:15;;;;;;;3.80;2.05;;;666.40;2432.00;;;;;;5094837;28;20035;-80
2023/09/21 10:49:42;;;;;;;4.80;2.50;;;666.30;2432.00;;;;;;5080935;28;20028;-80
2023/09/21 10:52:08;;;;;;;3.05;1.67;;;691.30;2432.00;;;;;;5091398;28;20392;-80
2023/09/21 10:54:38;;;;;;;3.25;1.80;;;;;;;;;;5079025;28;20024;-82
2023/09/21 10:57:04;;;;;;;3.65;1.85;;;;;;;;;;5085933;28;20024;-80
2023/09/21 10:59:30;;;;;;;3.42;1.58;;;;;;;;;;5086491;28;20016;-78
2023/09/21 11:01:56;;;;;;;3.20;1.63;;;;;;;;;;5078277;28;20021;-79
2023/09/21 11:04:23;;;;;;;2.28;1.27;;;;;;;;;;5090585;28;20043;-81
2023/09/21 11:06:49;;;;;;;2.65;1.55;;;;;;;;;;5080585;28;20031;-83
2023/09/21 11:09:17;;;;;;;5.57;1.70;;;;;;;;;;5084206;28;20027;-82
2023/09/21 11:11:44;;;;;;;3.33;1.83;;;;;;;;;;5088176;28;20031;-80
2023/09/21 11:14:10;;;;;;;4.03;1.88;;;;;;;;;;5077503;28;20021;-79
2023/09/21 11:16:36;;;;;;;3.03;1.52;;;;;;;;;;5088435;28;20031;-81
2023/09/21 11:19:05;;;;;;;3.95;1.38;;;;;;;;;;5081813;28;20055;-80
2023/09/21 11:21:32;;;;;;;3.58;1.70;;;;;;;;;;5081870;28;20025;-80
2023/09/21 11:23:58;;;;;;;2.70;1.33;;;;;;;;;;5089538;28;20058;-78
2023/09/21 11:26:27;;;;;;;2.88;1.67;;;;;;;;;;5077242;28;20024;-79
2023/09/21 11:28:59;;;;;;;2.08;1.15;;;;;;;;;;5087303;28;20020;-79
2023/09/21 11:31:28;;;;;;;3.38;1.55;;;;;;;;;;5086074;28;20109;-79
2023/09/21 11:33:54;;;;;;;6.20;1.48;;;;;;;;;;5078300;28;20028;-79
2023/09/21 11:36:21;;;;;;;3.67;1.48;;;;;;;;;;5092030;28;20529;-79
2023/09/21 11:38:47;;;;;;;2.85;1.40;;;;;;;;;;5079624;28;20056;-79
2023/09/21 11:41:15;;;;;;;2.53;1.35;;;;;;;;;;5087684;28;20017;-77
2023/09/21 11:43:42;;;;;;;3.47;1.40;;;;;;;;;;5110294;28;20032;-77
2023/09/21 11:46:08;;;;;;;2.85;1.17;;;;;;;;;;5087754;28;20028;-79
2023/09/21 11:48:35;;;;;;;2.70;1.40;;;;;;;;;;5089350;28;20013;-81
2023/09/21 11:51:04;;;;;;;3.63;1.30;;;794.00;2278.40;;;;;;5081527;28;20024;-79
2023/09/21 11:53:31;;;;;;;3.60;1.35;;;794.00;2304.00;;;;;;5081013;28;20516;-79
2023/09/21 11:55:57;;;;;;;3.08;1.45;;;794.20;2304.00;;;;;;5089458;28;20062;-80
2023/09/21 11:58:23;;;;;;;3.42;1.55;;;794.20;2252.80;;;;;;5076303;28;20052;-79
2023/09/21 12:01:12;;;;;;;5.05;1.83;;;794.20;2252.80;;;;;;5087176;28;20037;-79
2023/09/21 12:03:37;;;;;;;3.95;1.38;;;794.30;2278.40;;;;;;5087321;28;20027;-78
2023/09/21 12:06:04;;;;;;;2.78;1.45;;;;;;;;;;5076138;28;20046;-77
2023/09/21 12:08:31;;;;;;;6.72;1.42;;;;;;;;;;5089382;28;20456;-80
2023/09/21 12:10:57;;;;;;;4.30;1.42;;;;;;;;;;5081974;28;20075;-79
2023/09/21 12:13:23;;;;;;;4.38;1.80;;;;;;;;;;5081747;28;20020;-83
2023/09/21 12:15:55;;;;;;;3.92;1.67;;;;;;;;;;5088528;28;20466;-81
2023/09/21 12:18:22;;;;;;;5.13;1.50;;;;;;;;;;5090352;28;20403;-82
2023/09/21 12:20:57;;;;;;;2.90;1.60;;;;;;;;;;5078837;28;20031;-82
2023/09/21 12:23:24;;;;;;;2.55;1.35;;;;;;;;;;5081519;28;20030;-80
2023/09/21 12:25:51;;;;;;;3.60;1.45;;;;;;;;;;5087529;28;20027;-79
2023/09/21 12:28:19;;;;;;;3.53;1.40;;;;;;;;;;5085968;28;20020;-81
2023/09/21 12:30:47;;;;;;;2.78;1.27;;;;;;;;;;5092941;28;20418;-82
2023/09/21 12:33:15;;;;;;;2.58;1.33;;;;;;;;;;5092911;28;20035;-80
2023/09/21 12:35:41;;;;;;;3.40;1.60;;;;;;;;;;5092637;28;20036;-82
2023/09/21 12:38:08;;;;;;;3.25;1.50;;;;;;;;;;5092976;28;20107;-81
2023/09/21 12:40:34;;;;;;;2.83;1.52;;;;;;;;;;5094078;28;20034;-80
2023/09/21 12:43:00;;;;;;;2.95;1.30;;;;;;;;;;5092991;28;20464;-80
2023/09/21 12:45:26;;;;;;;6.60;1.05;;;;;;;;;;5093358;28;20032;-80
2023/09/21 12:47:53;;;;;;;2.75;1.35;;;;;;;;;;5092763;28;20048;-81
2023/09/21 12:50:19;;;;;;;5.68;1.67;;;;;;;;;;5092844;28;20028;-81
2023/09/21 12:52:47;;;;;;;3.55;1.58;;;;;;;;;;5092891;28;20375;-80
2023/09/21 12:55:14;;;;;;;3.25;1.52;;;;;;;;;;5094066;28;20027;-80
2023/09/21 12:57:41;;;;;;;4.28;1.65;;;;;;;;;;5093533;28;20122;-81
2023/09/21 13:00:18;;;;;;;4.65;2.00;;;;;;;;;;5092648;28;20070;-81
2023/09/21 13:02:45;;;;;;;2.70;1.20;;;;;;;;;;5093865;28;20032;-82
2023/09/21 13:05:12;;;;;;;3.25;1.85;;;;;;;;;;5109760;28;20102;-80
2023/09/21 13:07:42;;;;;;;5.00;2.45;;;;;;;;;;5109672;28;20026;-82
2023/09/21 13:10:08;;;;;;;3.35;1.77;;;;;;;;;;5109718;28;20028;-83
2023/09/21 13:12:39;;;;;;;2.83;1.35;;;;;;;;;;5109841;28;20118;-80
2023/09/21 13:15:06;;;;;;;4.80;1.77;;;;;;;;;;5110474;28;20069;-81
2023/09/21 13:17:32;;;;;;;2.88;1.55;;;;;;;;;;5109212;28;20109;-81
2023/09/21 13:19:58;;;;;;;4.28;1.52;;;;;;;;;;5109314;28;20196;-80
2023/09/21 13:22:25;;;;;;;2.67;1.33;;;768.60;2201.60;;;;;;5093693;28;20032;-82
2023/09/21 13:24:51;;;;;;;3.97;1.73;;;768.30;2252.80;;;;;;5109489;28;20074;-81
2023/09/21 13:27:17;;;;;;;5.85;1.92;;;;;;;;;;5109471;28;20464;-82
2023/09/21 13:29:44;;;;;;;8.27;1.85;;;;;;;;;;5109130;28;20023;-82
2023/09/21 13:32:11;;;;;;;2.47;1.20;;;;;;;;;;5109516;28;20024;-82
2023/09/21 13:34:37;;;;;;;2.63;1.17;;;;;;;;;;5109419;28;20020;-82
2023/09/21 13:37:04;;;;;;;3.03;1.42;;;;;;;;;;5109228;28;20028;-80
2023/09/21 13:39:33;;;;;;;4.32;1.25;;;;;;;;;;5095661;28;20023;-78
2023/09/21 13:41:59;;;;;;;2.97;1.40;;;743.30;2176.00;;;;;;5113153;28;20061;-79
2023/09/21 13:44:28;;;;;;;3.00;1.33;;;743.20;2201.60;;;;;;5097149;28;20078;-78
2023/09/21 13:46:57;;;;;;;3.05;1.42;;;743.00;2176.00;;;;;;5113237;28;20039;-78
2023/09/21 13:49:25;;;;;;;3.90;1.50;;;742.70;2176.00;;;;;;5113627;28;20020;-79
2023/09/21 13:51:52;;;;;;;3.97;1.70;;;742.90;2201.60;;;;;;5113052;28;20024;-79
2023/09/21 13:54:18;;;;;;;4.85;1.52;;;742.70;2227.20;;;;;;5112697;28;20387;-78
2023/09/21 13:56:45;;;;;;;4.45;1.70;;;;;;;;;;5113073;28;20035;-78
2023/09/21 13:59:11;;;;;;;4.13;1.60;;;;;;;;;;5112974;28;20496;-78
2023/09/21 14:01:38;;;;;;;3.67;1.40;;;;;;;;;;5112490;28;20024;-78
2023/09/21 14:04:04;;;;;;;5.38;1.58;;;;;;;;;;5096884;28;20467;-79
2023/09/21 14:06:30;;;;;;;4.47;1.67;;;;;;;;;;5112756;28;20111;-79
2023/09/21 14:08:58;;;;;;;3.50;1.33;;;;;;;;;;5096958;28;20371;-80
2023/09/21 14:11:24;;;;;;;3.05;1.27;;;;;;;;;;5112768;28;20025;-79
2023/09/21 14:13:50;;;;;;;4.85;1.45;;;;;;;;;;5112651;28;20017;-78
2023/09/21 14:16:16;;;;;;;3.40;1.40;;;;;;;;;;5096617;28;20032;-79
2023/09/21 14:18:43;;;;;;;2.92;1.50;;;;;;;;;;5112244;28;20052;-78
2023/09/21 14:21:09;;;;;;;2.90;1.20;;;;;;;;;;5112859;28;20028;-79
2023/09/21 14:23:36;;;;;;;6.25;1.27;;;;;;;;;;5096404;28;20024;-78
2023/09/21 14:26:03;;;;;;;2.47;1.38;;;;;;;;;;5097006;28;20024;-79
2023/09/21 14:28:30;;;;;;;3.80;1.50;;;;;;;;;;5112254;28;20082;-78
2023/09/21 14:30:57;;;;;;;4.55;1.95;;;;;;;;;;5112043;28;20447;-79
2023/09/21 14:33:24;;;;;;;5.13;1.75;;;;;;;;;;5111960;28;20115;-78
2023/09/21 14:35:50;;;;;;;5.68;1.55;;;;;;;;;;5112599;28;20463;-79